sensor_id;sensor_type;location;lat;lon;timestamp;P1;durP1;ratioP1;P2;durP2;ratioP2
41275;SDS011;27010;47.718;12.912;2024-03-22T00:00:56;12.63;;;9.10;;
41275;SDS011;27010;47.718;12.912;2024-03-22T00:03:57;13.70;;;9.13;;
41275;SDS011;27010;47.718;12.912;2024-03-22T00:06:58;13.10;;;9.53;;
41275;SDS011;27010;47.718;12.912;2024-03-22T00:09:59;13.43;;;10.23;;
41275;SDS011;27010;47.718;12.912;2024-03-22T00:13:00;17.47;;;11.23;;
41275;SDS011;27010;47.718;12.912;2024-03-22T00:16:01;14.83;;;9.73;;
41275;SDS011;27010;47.718;12.912;2024-03-22T00:19:02;13.40;;;9.17;;
41275;SDS011;27010;47.718;12.912;2024-03-22T00:22:04;13.33;;;9.40;;
41275;SDS011;27010;47.718;12.912;2024-03-22T00:25:05;14.40;;;10.00;;
41275;SDS011;27010;47.718;12.912;2024-03-22T00:28:07;15.13;;;10.13;;
41275;SDS011;27010;47.718;12.912;2024-03-22T00:31:08;17.53;;;11.00;;
41275;SDS011;27010;47.718;12.912;2024-03-22T00:34:10;16.07;;;11.00;;
41275;SDS011;27010;47.718;12.912;2024-03-22T00:37:11;15.57;;;9.67;;
41275;SDS011;27010;47.718;12.912;2024-03-22T00:40:12;14.97;;;10.07;;
41275;SDS011;27010;47.718;12.912;2024-03-22T00:43:13;14.47;;;10.27;;
41275;SDS011;27010;47.718;12.912;2024-03-22T00:46:14;19.53;;;12.37;;
41275;SDS011;27010;47.718;12.912;2024-03-22T00:49:16;24.43;;;12.07;;
41275;SDS011;27010;47.718;12.912;2024-03-22T00:52:17;21.50;;;12.43;;
41275;SDS011;27010;47.718;12.912;2024-03-22T00:55:18;22.53;;;12.57;;
41275;SDS011;27010;47.718;12.912;2024-03-22T00:58:20;19.97;;;10.80;;
41275;SDS011;27010;47.718;12.912;2024-03-22T01:01:21;18.43;;;11.20;;
41275;SDS011;27010;47.718;12.912;2024-03-22T01:04:22;18.57;;;11.93;;
41275;SDS011;27010;47.718;12.912;2024-03-22T01:07:24;16.40;;;11.73;;
41275;SDS011;27010;47.718;12.912;2024-03-22T01:10:25;19.83;;;12.57;;
41275;SDS011;27010;47.718;12.912;2024-03-22T01:13:27;19.80;;;12.03;;
41275;SDS011;27010;47.718;12.912;2024-03-22T01:16:28;19.97;;;12.37;;
41275;SDS011;27010;47.718;12.912;2024-03-22T01:19:30;17.47;;;11.73;;
41275;SDS011;27010;47.718;12.912;2024-03-22T01:22:31;24.93;;;14.13;;
41275;SDS011;27010;47.718;12.912;2024-03-22T01:25:32;19.60;;;12.33;;
41275;SDS011;27010;47.718;12.912;2024-03-22T01:28:33;18.43;;;11.67;;
41275;SDS011;27010;47.718;12.912;2024-03-22T01:31:34;23.57;;;13.20;;
41275;SDS011;27010;47.718;12.912;2024-03-22T01:34:35;21.87;;;13.37;;
41275;SDS011;27010;47.718;12.912;2024-03-22T01:37:36;21.57;;;13.07;;
41275;SDS011;27010;47.718;12.912;2024-03-22T01:40:37;20.63;;;12.43;;
41275;SDS011;27010;47.718;12.912;2024-03-22T01:43:38;17.93;;;11.03;;
41275;SDS011;27010;47.718;12.912;2024-03-22T01:46:40;19.73;;;12.53;;
41275;SDS011;27010;47.718;12.912;2024-03-22T01:49:42;20.50;;;12.40;;
41275;SDS011;27010;47.718;12.912;2024-03-22T01:52:44;19.87;;;12.17;;
41275;SDS011;27010;47.718;12.912;2024-03-22T01:55:45;20.37;;;11.80;;
41275;SDS011;27010;47.718;12.912;2024-03-22T01:58:46;19.93;;;11.43;;
41275;SDS011;27010;47.718;12.912;2024-03-22T02:01:47;20.73;;;12.33;;
41275;SDS011;27010;47.718;12.912;2024-03-22T02:04:52;19.43;;;10.27;;
41275;SDS011;27010;47.718;12.912;2024-03-22T02:07:53;18.87;;;11.70;;
41275;SDS011;27010;47.718;12.912;2024-03-22T02:10:55;20.43;;;12.10;;
41275;SDS011;27010;47.718;12.912;2024-03-22T02:13:57;22.83;;;11.17;;
41275;SDS011;27010;47.718;12.912;2024-03-22T02:16:58;17.37;;;11.47;;
41275;SDS011;27010;47.718;12.912;2024-03-22T02:19:59;17.27;;;10.83;;
41275;SDS011;27010;47.718;12.912;2024-03-22T02:23:01;21.03;;;12.13;;
41275;SDS011;27010;47.718;12.912;2024-03-22T02:26:02;14.83;;;10.07;;
41275;SDS011;27010;47.718;12.912;2024-03-22T02:29:04;22.40;;;12.30;;
41275;SDS011;27010;47.718;12.912;2024-03-22T02:32:05;18.57;;;11.33;;
41275;SDS011;27010;47.718;12.912;2024-03-22T02:35:06;20.57;;;11.63;;
41275;SDS011;27010;47.718;12.912;2024-03-22T02:38:08;21.80;;;11.10;;
41275;SDS011;27010;47.718;12.912;2024-03-22T02:41:09;17.60;;;10.77;;
41275;SDS011;27010;47.718;12.912;2024-03-22T02:44:11;17.33;;;11.40;;
41275;SDS011;27010;47.718;12.912;2024-03-22T02:47:12;19.83;;;11.27;;
41275;SDS011;27010;47.718;12.912;2024-03-22T02:50:16;16.80;;;10.83;;
41275;SDS011;27010;47.718;12.912;2024-03-22T02:53:18;19.80;;;11.17;;
41275;SDS011;27010;47.718;12.912;2024-03-22T02:56:20;18.37;;;10.80;;
41275;SDS011;27010;47.718;12.912;2024-03-22T02:59:21;15.53;;;9.43;;
41275;SDS011;27010;47.718;12.912;2024-03-22T03:02:22;16.10;;;10.03;;
41275;SDS011;27010;47.718;12.912;2024-03-22T03:05:23;17.87;;;11.47;;
41275;SDS011;27010;47.718;12.912;2024-03-22T03:08:24;20.57;;;11.03;;
41275;SDS011;27010;47.718;12.912;2024-03-22T03:11:25;16.37;;;10.17;;
41275;SDS011;27010;47.718;12.912;2024-03-22T03:14:26;15.93;;;10.37;;
41275;SDS011;27010;47.718;12.912;2024-03-22T03:17:27;18.60;;;11.63;;
41275;SDS011;27010;47.718;12.912;2024-03-22T03:20:28;15.17;;;10.00;;
41275;SDS011;27010;47.718;12.912;2024-03-22T03:23:29;17.73;;;11.27;;
41275;SDS011;27010;47.718;12.912;2024-03-22T03:26:30;17.47;;;11.43;;
41275;SDS011;27010;47.718;12.912;2024-03-22T03:29:32;18.80;;;10.43;;
41275;SDS011;27010;47.718;12.912;2024-03-22T03:32:33;18.37;;;10.47;;
41275;SDS011;27010;47.718;12.912;2024-03-22T03:35:34;16.70;;;10.60;;
41275;SDS011;27010;47.718;12.912;2024-03-22T03:38:35;16.80;;;10.00;;
41275;SDS011;27010;47.718;12.912;2024-03-22T03:41:38;14.53;;;9.67;;
41275;SDS011;27010;47.718;12.912;2024-03-22T03:44:39;16.80;;;9.80;;
41275;SDS011;27010;47.718;12.912;2024-03-22T03:47:41;16.93;;;9.90;;
41275;SDS011;27010;47.718;12.912;2024-03-22T03:50:50;17.10;;;9.53;;
41275;SDS011;27010;47.718;12.912;2024-03-22T03:53:53;11.10;;;7.87;;
41275;SDS011;27010;47.718;12.912;2024-03-22T03:56:54;15.87;;;8.67;;
41275;SDS011;27010;47.718;12.912;2024-03-22T03:59:55;12.80;;;9.67;;
41275;SDS011;27010;47.718;12.912;2024-03-22T04:02:57;17.97;;;10.33;;
41275;SDS011;27010;47.718;12.912;2024-03-22T04:05:58;15.37;;;8.97;;
41275;SDS011;27010;47.718;12.912;2024-03-22T04:08:59;18.17;;;9.77;;
41275;SDS011;27010;47.718;12.912;2024-03-22T04:12:01;17.13;;;10.30;;
41275;SDS011;27010;47.718;12.912;2024-03-22T04:15:02;17.80;;;9.53;;
41275;SDS011;27010;47.718;12.912;2024-03-22T04:18:04;17.83;;;9.47;;
41275;SDS011;27010;47.718;12.912;2024-03-22T04:21:05;16.03;;;9.47;;
41275;SDS011;27010;47.718;12.912;2024-03-22T04:24:06;17.93;;;8.70;;
41275;SDS011;27010;47.718;12.912;2024-03-22T04:27:07;14.10;;;9.13;;
41275;SDS011;27010;47.718;12.912;2024-03-22T04:30:09;12.20;;;8.30;;
41275;SDS011;27010;47.718;12.912;2024-03-22T04:33:11;14.83;;;9.10;;
41275;SDS011;27010;47.718;12.912;2024-03-22T04:36:12;16.10;;;8.73;;
41275;SDS011;27010;47.718;12.912;2024-03-22T04:39:13;14.63;;;9.20;;
41275;SDS011;27010;47.718;12.912;2024-03-22T04:42:14;11.50;;;8.57;;
41275;SDS011;27010;47.718;12.912;2024-03-22T04:45:16;13.27;;;8.60;;
41275;SDS011;27010;47.718;12.912;2024-03-22T04:48:21;16.33;;;8.67;;
41275;SDS011;27010;47.718;12.912;2024-03-22T04:51:22;16.57;;;8.27;;
41275;SDS011;27010;47.718;12.912;2024-03-22T04:54:24;14.07;;;8.83;;
41275;SDS011;27010;47.718;12.912;2024-03-22T04:57:26;12.93;;;8.73;;
41275;SDS011;27010;47.718;12.912;2024-03-22T05:00:27;14.93;;;8.97;;
41275;SDS011;27010;47.718;12.912;2024-03-22T05:03:29;28.83;;;15.43;;
41275;SDS011;27010;47.718;12.912;2024-03-22T05:06:30;15.60;;;9.63;;
41275;SDS011;27010;47.718;12.912;2024-03-22T05:09:31;14.73;;;9.60;;
41275;SDS011;27010;47.718;12.912;2024-03-22T05:12:32;14.33;;;8.80;;
41275;SDS011;27010;47.718;12.912;2024-03-22T05:15:34;14.10;;;8.50;;
41275;SDS011;27010;47.718;12.912;2024-03-22T05:18:35;12.53;;;8.33;;
41275;SDS011;27010;47.718;12.912;2024-03-22T05:21:36;15.13;;;8.37;;
41275;SDS011;27010;47.718;12.912;2024-03-22T05:24:37;13.00;;;8.67;;
41275;SDS011;27010;47.718;12.912;2024-03-22T05:27:38;12.30;;;8.17;;
41275;SDS011;27010;47.718;12.912;2024-03-22T05:30:39;11.20;;;7.97;;
41275;SDS011;27010;47.718;12.912;2024-03-22T05:33:41;14.47;;;8.30;;
41275;SDS011;27010;47.718;12.912;2024-03-22T05:36:42;13.33;;;8.13;;
41275;SDS011;27010;47.718;12.912;2024-03-22T05:39:43;10.90;;;6.90;;
41275;SDS011;27010;47.718;12.912;2024-03-22T05:42:44;12.03;;;7.50;;
41275;SDS011;27010;47.718;12.912;2024-03-22T05:45:46;11.90;;;7.27;;
41275;SDS011;27010;47.718;12.912;2024-03-22T05:48:47;10.70;;;7.30;;
41275;SDS011;27010;47.718;12.912;2024-03-22T05:51:51;15.47;;;7.60;;
41275;SDS011;27010;47.718;12.912;2024-03-22T05:54:52;12.77;;;7.77;;
41275;SDS011;27010;47.718;12.912;2024-03-22T05:57:53;10.60;;;7.43;;
41275;SDS011;27010;47.718;12.912;2024-03-22T06:00:54;11.80;;;7.77;;
41275;SDS011;27010;47.718;12.912;2024-03-22T06:03:56;11.90;;;8.43;;
41275;SDS011;27010;47.718;12.912;2024-03-22T06:07:04;12.87;;;8.00;;
41275;SDS011;27010;47.718;12.912;2024-03-22T06:10:10;12.77;;;7.93;;
41275;SDS011;27010;47.718;12.912;2024-03-22T06:13:11;10.30;;;7.30;;
41275;SDS011;27010;47.718;12.912;2024-03-22T06:16:13;10.93;;;7.37;;
41275;SDS011;27010;47.718;12.912;2024-03-22T06:19:14;14.27;;;7.87;;
41275;SDS011;27010;47.718;12.912;2024-03-22T06:22:15;10.47;;;7.57;;
41275;SDS011;27010;47.718;12.912;2024-03-22T06:25:16;12.47;;;7.80;;
41275;SDS011;27010;47.718;12.912;2024-03-22T06:28:16;10.03;;;7.87;;
41275;SDS011;27010;47.718;12.912;2024-03-22T06:31:17;12.17;;;7.70;;
41275;SDS011;27010;47.718;12.912;2024-03-22T06:34:18;11.10;;;7.17;;
41275;SDS011;27010;47.718;12.912;2024-03-22T06:37:20;11.10;;;7.23;;
41275;SDS011;27010;47.718;12.912;2024-03-22T06:40:21;9.93;;;6.83;;
41275;SDS011;27010;47.718;12.912;2024-03-22T06:43:22;11.13;;;8.10;;
41275;SDS011;27010;47.718;12.912;2024-03-22T06:46:24;12.20;;;7.93;;
41275;SDS011;27010;47.718;12.912;2024-03-22T06:49:25;10.87;;;7.53;;
41275;SDS011;27010;47.718;12.912;2024-03-22T06:52:26;11.17;;;7.40;;
41275;SDS011;27010;47.718;12.912;2024-03-22T06:55:27;12.37;;;7.70;;
41275;SDS011;27010;47.718;12.912;2024-03-22T06:58:28;9.73;;;7.57;;
41275;SDS011;27010;47.718;12.912;2024-03-22T07:01:29;10.43;;;6.97;;
41275;SDS011;27010;47.718;12.912;2024-03-22T07:04:30;11.07;;;7.10;;
41275;SDS011;27010;47.718;12.912;2024-03-22T07:07:31;10.70;;;7.10;;
41275;SDS011;27010;47.718;12.912;2024-03-22T07:10:32;11.77;;;7.83;;
41275;SDS011;27010;47.718;12.912;2024-03-22T07:13:33;10.70;;;7.37;;
41275;SDS011;27010;47.718;12.912;2024-03-22T07:16:35;10.57;;;7.00;;
41275;SDS011;27010;47.718;12.912;2024-03-22T07:19:37;8.47;;;6.83;;
41275;SDS011;27010;47.718;12.912;2024-03-22T07:22:38;8.43;;;5.97;;
41275;SDS011;27010;47.718;12.912;2024-03-22T07:25:39;9.53;;;7.00;;
41275;SDS011;27010;47.718;12.912;2024-03-22T07:28:43;9.13;;;6.83;;
41275;SDS011;27010;47.718;12.912;2024-03-22T07:31:44;9.17;;;6.37;;
41275;SDS011;27010;47.718;12.912;2024-03-22T07:34:46;7.90;;;6.33;;
41275;SDS011;27010;47.718;12.912;2024-03-22T07:37:47;8.27;;;6.20;;
41275;SDS011;27010;47.718;12.912;2024-03-22T07:40:48;8.87;;;6.43;;
41275;SDS011;27010;47.718;12.912;2024-03-22T07:43:48;9.47;;;6.30;;
41275;SDS011;27010;47.718;12.912;2024-03-22T07:46:50;8.47;;;6.47;;
41275;SDS011;27010;47.718;12.912;2024-03-22T07:49:51;8.30;;;6.23;;
41275;SDS011;27010;47.718;12.912;2024-03-22T07:52:52;7.53;;;6.33;;
41275;SDS011;27010;47.718;12.912;2024-03-22T07:55:53;10.90;;;6.87;;
41275;SDS011;27010;47.718;12.912;2024-03-22T07:58:54;7.67;;;5.83;;
41275;SDS011;27010;47.718;12.912;2024-03-22T08:01:56;8.23;;;6.33;;
41275;SDS011;27010;47.718;12.912;2024-03-22T08:04:59;7.80;;;6.13;;
41275;SDS011;27010;47.718;12.912;2024-03-22T08:08:00;8.57;;;6.47;;
41275;SDS011;27010;47.718;12.912;2024-03-22T08:11:01;8.20;;;6.53;;
41275;SDS011;27010;47.718;12.912;2024-03-22T08:14:02;9.60;;;6.53;;
41275;SDS011;27010;47.718;12.912;2024-03-22T08:17:04;8.57;;;6.80;;
41275;SDS011;27010;47.718;12.912;2024-03-22T08:20:09;11.10;;;6.07;;
41275;SDS011;27010;47.718;12.912;2024-03-22T08:23:11;9.23;;;6.07;;
41275;SDS011;27010;47.718;12.912;2024-03-22T08:26:12;6.93;;;5.83;;
41275;SDS011;27010;47.718;12.912;2024-03-22T08:29:13;6.30;;;5.63;;
41275;SDS011;27010;47.718;12.912;2024-03-22T08:32:15;6.37;;;5.60;;
41275;SDS011;27010;47.718;12.912;2024-03-22T08:35:16;6.57;;;5.70;;
41275;SDS011;27010;47.718;12.912;2024-03-22T08:38:17;7.83;;;6.10;;
41275;SDS011;27010;47.718;12.912;2024-03-22T08:41:19;7.97;;;5.83;;
41275;SDS011;27010;47.718;12.912;2024-03-22T08:44:20;6.80;;;5.67;;
41275;SDS011;27010;47.718;12.912;2024-03-22T08:47:20;8.03;;;5.37;;
41275;SDS011;27010;47.718;12.912;2024-03-22T08:50:21;7.73;;;4.97;;
41275;SDS011;27010;47.718;12.912;2024-03-22T08:53:24;5.23;;;4.40;;
41275;SDS011;27010;47.718;12.912;2024-03-22T08:56:25;6.63;;;4.33;;
41275;SDS011;27010;47.718;12.912;2024-03-22T08:59:26;4.43;;;4.03;;
41275;SDS011;27010;47.718;12.912;2024-03-22T09:02:27;5.83;;;4.33;;
41275;SDS011;27010;47.718;12.912;2024-03-22T09:05:28;9.17;;;4.90;;
41275;SDS011;27010;47.718;12.912;2024-03-22T09:08:28;8.03;;;4.47;;
41275;SDS011;27010;47.718;12.912;2024-03-22T09:11:30;5.13;;;4.50;;
41275;SDS011;27010;47.718;12.912;2024-03-22T09:14:32;5.83;;;4.40;;
41275;SDS011;27010;47.718;12.912;2024-03-22T09:17:33;5.70;;;3.77;;
41275;SDS011;27010;47.718;12.912;2024-03-22T09:20:34;5.83;;;4.13;;
41275;SDS011;27010;47.718;12.912;2024-03-22T09:23:35;4.83;;;3.63;;
41275;SDS011;27010;47.718;12.912;2024-03-22T09:26:35;7.43;;;3.83;;
41275;SDS011;27010;47.718;12.912;2024-03-22T09:29:37;5.30;;;3.70;;
41275;SDS011;27010;47.718;12.912;2024-03-22T09:32:38;5.67;;;4.03;;
41275;SDS011;27010;47.718;12.912;2024-03-22T09:35:40;4.50;;;3.30;;
41275;SDS011;27010;47.718;12.912;2024-03-22T09:38:41;6.07;;;3.03;;
41275;SDS011;27010;47.718;12.912;2024-03-22T09:41:42;3.93;;;3.53;;
41275;SDS011;27010;47.718;12.912;2024-03-22T09:44:47;6.20;;;3.60;;
41275;SDS011;27010;47.718;12.912;2024-03-22T09:47:49;4.07;;;3.27;;
41275;SDS011;27010;47.718;12.912;2024-03-22T09:50:50;4.43;;;3.40;;
41275;SDS011;27010;47.718;12.912;2024-03-22T09:53:52;5.17;;;3.00;;
41275;SDS011;27010;47.718;12.912;2024-03-22T09:56:55;6.37;;;3.33;;
41275;SDS011;27010;47.718;12.912;2024-03-22T09:59:57;4.33;;;2.63;;
41275;SDS011;27010;47.718;12.912;2024-03-22T10:02:58;4.63;;;2.73;;
41275;SDS011;27010;47.718;12.912;2024-03-22T10:06:00;4.60;;;2.50;;
41275;SDS011;27010;47.718;12.912;2024-03-22T10:09:02;3.30;;;2.03;;
41275;SDS011;27010;47.718;12.912;2024-03-22T10:12:06;3.20;;;1.93;;
41275;SDS011;27010;47.718;12.912;2024-03-22T10:15:07;3.13;;;1.80;;
41275;SDS011;27010;47.718;12.912;2024-03-22T10:18:09;3.33;;;1.93;;
41275;SDS011;27010;47.718;12.912;2024-03-22T10:21:10;2.20;;;1.80;;
41275;SDS011;27010;47.718;12.912;2024-03-22T10:24:11;4.13;;;1.67;;
41275;SDS011;27010;47.718;12.912;2024-03-22T10:27:13;3.20;;;1.30;;
41275;SDS011;27010;47.718;12.912;2024-03-22T10:30:15;2.03;;;1.30;;
41275;SDS011;27010;47.718;12.912;2024-03-22T10:33:18;2.77;;;1.23;;
41275;SDS011;27010;47.718;12.912;2024-03-22T10:36:19;2.30;;;1.33;;
41275;SDS011;27010;47.718;12.912;2024-03-22T10:39:20;2.83;;;1.63;;
41275;SDS011;27010;47.718;12.912;2024-03-22T10:42:23;1.50;;;1.20;;
41275;SDS011;27010;47.718;12.912;2024-03-22T10:45:24;1.83;;;1.50;;
41275;SDS011;27010;47.718;12.912;2024-03-22T10:48:29;3.20;;;1.30;;
41275;SDS011;27010;47.718;12.912;2024-03-22T10:51:30;1.70;;;1.10;;
41275;SDS011;27010;47.718;12.912;2024-03-22T10:54:35;1.93;;;1.20;;
41275;SDS011;27010;47.718;12.912;2024-03-22T10:57:38;2.07;;;1.80;;
41275;SDS011;27010;47.718;12.912;2024-03-22T11:00:41;1.27;;;1.10;;
41275;SDS011;27010;47.718;12.912;2024-03-22T11:03:43;1.90;;;1.10;;
41275;SDS011;27010;47.718;12.912;2024-03-22T11:06:48;2.70;;;1.30;;
41275;SDS011;27010;47.718;12.912;2024-03-22T11:09:52;3.57;;;1.90;;
41275;SDS011;27010;47.718;12.912;2024-03-22T11:12:53;1.93;;;1.40;;
41275;SDS011;27010;47.718;12.912;2024-03-22T11:15:54;2.13;;;1.17;;
41275;SDS011;27010;47.718;12.912;2024-03-22T11:18:55;3.22;;;1.10;;
41275;SDS011;27010;47.718;12.912;2024-03-22T11:21:56;3.07;;;1.30;;
41275;SDS011;27010;47.718;12.912;2024-03-22T11:24:57;1.37;;;1.00;;
41275;SDS011;27010;47.718;12.912;2024-03-22T11:27:59;2.83;;;1.57;;
41275;SDS011;27010;47.718;12.912;2024-03-22T11:31:01;4.60;;;0.90;;
41275;SDS011;27010;47.718;12.912;2024-03-22T11:34:02;1.45;;;0.90;;
41275;SDS011;27010;47.718;12.912;2024-03-22T11:37:03;2.63;;;0.90;;
41275;SDS011;27010;47.718;12.912;2024-03-22T11:40:10;1.87;;;1.40;;
41275;SDS011;27010;47.718;12.912;2024-03-22T11:43:13;1.20;;;1.10;;
41275;SDS011;27010;47.718;12.912;2024-03-22T11:46:15;3.07;;;1.07;;
41275;SDS011;27010;47.718;12.912;2024-03-22T11:49:17;2.78;;;1.05;;
41275;SDS011;27010;47.718;12.912;2024-03-22T11:52:23;1.07;;;0.70;;
41275;SDS011;27010;47.718;12.912;2024-03-22T11:55:27;2.77;;;1.20;;
41275;SDS011;27010;47.718;12.912;2024-03-22T11:58:29;1.95;;;1.42;;
41275;SDS011;27010;47.718;12.912;2024-03-22T12:01:30;2.72;;;1.15;;
41275;SDS011;27010;47.718;12.912;2024-03-22T12:04:31;1.83;;;1.33;;
41275;SDS011;27010;47.718;12.912;2024-03-22T12:07:32;4.80;;;1.67;;
41275;SDS011;27010;47.718;12.912;2024-03-22T12:10:33;3.40;;;1.55;;
41275;SDS011;27010;47.718;12.912;2024-03-22T12:13:38;6.83;;;2.07;;
41275;SDS011;27010;47.718;12.912;2024-03-22T12:16:40;3.47;;;2.00;;
41275;SDS011;27010;47.718;12.912;2024-03-22T12:19:41;2.63;;;2.03;;
41275;SDS011;27010;47.718;12.912;2024-03-22T12:22:42;2.53;;;1.70;;
41275;SDS011;27010;47.718;12.912;2024-03-22T12:25:43;3.00;;;2.10;;
41275;SDS011;27010;47.718;12.912;2024-03-22T12:28:44;4.33;;;2.20;;
41275;SDS011;27010;47.718;12.912;2024-03-22T12:31:45;3.53;;;1.70;;
41275;SDS011;27010;47.718;12.912;2024-03-22T12:34:46;3.07;;;1.77;;
41275;SDS011;27010;47.718;12.912;2024-03-22T12:37:47;2.43;;;1.83;;
41275;SDS011;27010;47.718;12.912;2024-03-22T12:40:47;4.17;;;1.73;;
41275;SDS011;27010;47.718;12.912;2024-03-22T12:43:49;1.87;;;1.30;;
41275;SDS011;27010;47.718;12.912;2024-03-22T12:46:50;3.20;;;1.50;;
41275;SDS011;27010;47.718;12.912;2024-03-22T12:49:51;2.53;;;1.90;;
41275;SDS011;27010;47.718;12.912;2024-03-22T12:52:52;1.90;;;1.60;;
41275;SDS011;27010;47.718;12.912;2024-03-22T12:55:54;3.37;;;1.93;;
41275;SDS011;27010;47.718;12.912;2024-03-22T12:58:55;2.10;;;1.70;;
41275;SDS011;27010;47.718;12.912;2024-03-22T13:01:56;4.20;;;1.47;;
41275;SDS011;27010;47.718;12.912;2024-03-22T13:04:58;1.45;;;1.23;;
41275;SDS011;27010;47.718;12.912;2024-03-22T13:08:00;4.43;;;1.70;;
41275;SDS011;27010;47.718;12.912;2024-03-22T13:11:04;2.42;;;1.33;;
41275;SDS011;27010;47.718;12.912;2024-03-22T13:14:09;2.95;;;1.48;;
41275;SDS011;27010;47.718;12.912;2024-03-22T13:17:12;4.18;;;1.30;;
41275;SDS011;27010;47.718;12.912;2024-03-22T13:20:13;3.38;;;1.67;;
41275;SDS011;27010;47.718;12.912;2024-03-22T13:23:15;2.15;;;1.45;;
41275;SDS011;27010;47.718;12.912;2024-03-22T13:26:17;2.35;;;1.20;;
41275;SDS011;27010;47.718;12.912;2024-03-22T13:29:18;3.40;;;1.60;;
41275;SDS011;27010;47.718;12.912;2024-03-22T13:32:24;2.30;;;1.13;;
41275;SDS011;27010;47.718;12.912;2024-03-22T13:35:25;3.00;;;1.60;;
41275;SDS011;27010;47.718;12.912;2024-03-22T13:38:26;5.97;;;1.40;;
41275;SDS011;27010;47.718;12.912;2024-03-22T13:41:34;2.47;;;1.33;;
41275;SDS011;27010;47.718;12.912;2024-03-22T13:44:35;1.67;;;1.15;;
41275;SDS011;27010;47.718;12.912;2024-03-22T13:47:37;2.78;;;1.20;;
41275;SDS011;27010;47.718;12.912;2024-03-22T13:50:40;1.88;;;1.20;;
41275;SDS011;27010;47.718;12.912;2024-03-22T13:53:41;1.48;;;0.95;;
41275;SDS011;27010;47.718;12.912;2024-03-22T13:56:49;1.90;;;1.27;;
41275;SDS011;27010;47.718;12.912;2024-03-22T13:59:51;1.13;;;1.02;;
41275;SDS011;27010;47.718;12.912;2024-03-22T14:02:52;2.42;;;1.20;;
41275;SDS011;27010;47.718;12.912;2024-03-22T14:05:56;1.80;;;1.25;;
41275;SDS011;27010;47.718;12.912;2024-03-22T14:08:59;2.15;;;1.40;;
41275;SDS011;27010;47.718;12.912;2024-03-22T14:12:04;1.95;;;1.10;;
41275;SDS011;27010;47.718;12.912;2024-03-22T14:15:05;1.38;;;1.00;;
41275;SDS011;27010;47.718;12.912;2024-03-22T14:18:06;2.45;;;1.27;;
41275;SDS011;27010;47.718;12.912;2024-03-22T14:21:07;1.70;;;1.00;;
41275;SDS011;27010;47.718;12.912;2024-03-22T14:24:08;1.35;;;0.95;;
41275;SDS011;27010;47.718;12.912;2024-03-22T14:27:10;1.95;;;1.25;;
41275;SDS011;27010;47.718;12.912;2024-03-22T14:30:11;3.00;;;1.20;;
41275;SDS011;27010;47.718;12.912;2024-03-22T14:33:13;2.60;;;0.90;;
41275;SDS011;27010;47.718;12.912;2024-03-22T14:36:14;1.63;;;1.10;;
41275;SDS011;27010;47.718;12.912;2024-03-22T14:39:15;1.80;;;1.08;;
41275;SDS011;27010;47.718;12.912;2024-03-22T14:42:16;1.88;;;1.02;;
41275;SDS011;27010;47.718;12.912;2024-03-22T14:45:17;1.50;;;1.23;;
41275;SDS011;27010;47.718;12.912;2024-03-22T14:48:21;2.08;;;1.17;;
41275;SDS011;27010;47.718;12.912;2024-03-22T14:51:23;2.85;;;1.20;;
41275;SDS011;27010;47.718;12.912;2024-03-22T14:54:24;1.42;;;1.15;;
41275;SDS011;27010;47.718;12.912;2024-03-22T14:57:26;2.55;;;1.10;;
41275;SDS011;27010;47.718;12.912;2024-03-22T15:00:26;2.00;;;1.30;;
41275;SDS011;27010;47.718;12.912;2024-03-22T15:03:29;1.30;;;1.00;;
41275;SDS011;27010;47.718;12.912;2024-03-22T15:06:31;2.83;;;1.38;;
41275;SDS011;27010;47.718;12.912;2024-03-22T15:09:33;1.58;;;1.00;;
41275;SDS011;27010;47.718;12.912;2024-03-22T15:12:34;4.50;;;1.20;;
41275;SDS011;27010;47.718;12.912;2024-03-22T15:15:36;1.30;;;1.20;;
41275;SDS011;27010;47.718;12.912;2024-03-22T15:18:38;2.20;;;1.30;;
41275;SDS011;27010;47.718;12.912;2024-03-22T15:21:43;1.88;;;1.48;;
41275;SDS011;27010;47.718;12.912;2024-03-22T15:24:47;2.97;;;1.55;;
41275;SDS011;27010;47.718;12.912;2024-03-22T15:27:51;1.55;;;1.20;;
41275;SDS011;27010;47.718;12.912;2024-03-22T15:30:52;1.63;;;1.30;;
41275;SDS011;27010;47.718;12.912;2024-03-22T15:33:53;1.92;;;1.10;;
41275;SDS011;27010;47.718;12.912;2024-03-22T15:36:54;2.78;;;1.65;;
41275;SDS011;27010;47.718;12.912;2024-03-22T15:39:55;2.50;;;1.10;;
41275;SDS011;27010;47.718;12.912;2024-03-22T15:42:56;2.50;;;1.30;;
41275;SDS011;27010;47.718;12.912;2024-03-22T15:46:00;3.10;;;1.63;;
41275;SDS011;27010;47.718;12.912;2024-03-22T15:49:01;1.80;;;1.15;;
41275;SDS011;27010;47.718;12.912;2024-03-22T15:52:03;2.17;;;1.58;;
41275;SDS011;27010;47.718;12.912;2024-03-22T15:55:04;1.98;;;1.27;;
41275;SDS011;27010;47.718;12.912;2024-03-22T15:58:06;2.13;;;1.30;;
41275;SDS011;27010;47.718;12.912;2024-03-22T16:01:07;3.30;;;1.55;;
41275;SDS011;27010;47.718;12.912;2024-03-22T16:04:34;2.90;;;1.23;;
41275;SDS011;27010;47.718;12.912;2024-03-22T16:07:35;2.25;;;1.23;;
41275;SDS011;27010;47.718;12.912;2024-03-22T16:10:45;1.92;;;1.20;;
41275;SDS011;27010;47.718;12.912;2024-03-22T16:13:46;6.27;;;1.30;;
41275;SDS011;27010;47.718;12.912;2024-03-22T16:16:48;1.57;;;1.07;;
41275;SDS011;27010;47.718;12.912;2024-03-22T16:19:53;2.67;;;1.50;;
41275;SDS011;27010;47.718;12.912;2024-03-22T16:22:54;2.63;;;1.17;;
41275;SDS011;27010;47.718;12.912;2024-03-22T16:25:55;1.60;;;1.23;;
41275;SDS011;27010;47.718;12.912;2024-03-22T16:28:56;1.83;;;1.20;;
41275;SDS011;27010;47.718;12.912;2024-03-22T16:31:58;1.77;;;1.33;;
41275;SDS011;27010;47.718;12.912;2024-03-22T16:34:59;1.23;;;0.97;;
41275;SDS011;27010;47.718;12.912;2024-03-22T16:38:00;1.83;;;1.37;;
41275;SDS011;27010;47.718;12.912;2024-03-22T16:41:01;1.47;;;1.00;;
41275;SDS011;27010;47.718;12.912;2024-03-22T16:44:04;1.40;;;1.30;;
41275;SDS011;27010;47.718;12.912;2024-03-22T16:47:05;3.00;;;1.50;;
41275;SDS011;27010;47.718;12.912;2024-03-22T16:50:07;5.50;;;2.10;;
41275;SDS011;27010;47.718;12.912;2024-03-22T16:53:10;2.30;;;1.60;;
41275;SDS011;27010;47.718;12.912;2024-03-22T16:56:11;4.60;;;1.40;;
41275;SDS011;27010;47.718;12.912;2024-03-22T16:59:13;2.97;;;1.30;;
41275;SDS011;27010;47.718;12.912;2024-03-22T17:02:14;2.07;;;1.27;;
41275;SDS011;27010;47.718;12.912;2024-03-22T17:05:15;6.93;;;1.50;;
41275;SDS011;27010;47.718;12.912;2024-03-22T17:08:16;3.23;;;1.57;;
41275;SDS011;27010;47.718;12.912;2024-03-22T17:11:17;5.00;;;1.30;;
41275;SDS011;27010;47.718;12.912;2024-03-22T17:14:18;3.07;;;1.53;;
41275;SDS011;27010;47.718;12.912;2024-03-22T17:17:21;3.00;;;1.60;;
41275;SDS011;27010;47.718;12.912;2024-03-22T17:20:23;3.63;;;1.20;;
41275;SDS011;27010;47.718;12.912;2024-03-22T17:23:23;2.60;;;1.63;;
41275;SDS011;27010;47.718;12.912;2024-03-22T17:26:25;2.03;;;1.50;;
41275;SDS011;27010;47.718;12.912;2024-03-22T17:29:26;1.73;;;1.50;;
41275;SDS011;27010;47.718;12.912;2024-03-22T17:32:27;4.77;;;1.13;;
41275;SDS011;27010;47.718;12.912;2024-03-22T17:35:28;4.87;;;1.60;;
41275;SDS011;27010;47.718;12.912;2024-03-22T17:38:29;3.77;;;1.53;;
41275;SDS011;27010;47.718;12.912;2024-03-22T17:41:31;2.17;;;1.33;;
41275;SDS011;27010;47.718;12.912;2024-03-22T17:44:32;3.03;;;1.77;;
41275;SDS011;27010;47.718;12.912;2024-03-22T17:47:37;3.07;;;1.40;;